createdAt,value
2019-03-16T00:00:54.762Z,11.40
2019-03-16T00:03:24.158Z,12.97
2019-03-16T00:06:14.281Z,13.87
2019-03-16T00:08:43.509Z,8.03
2019-03-16T00:11:12.753Z,11.43
2019-03-16T00:13:42.007Z,9.00
2019-03-16T00:16:11.227Z,8.77
2019-03-16T00:18:40.563Z,10.67
2019-03-16T00:21:09.803Z,14.40
2019-03-16T00:23:39.059Z,15.10
2019-03-16T00:26:08.387Z,5.50
2019-03-16T00:28:37.618Z,19.83
2019-03-16T00:31:06.954Z,9.43
2019-03-16T00:33:36.235Z,9.20
2019-03-16T00:36:05.591Z,11.27
2019-03-16T00:38:34.840Z,11.40
2019-03-16T00:41:04.098Z,10.40
2019-03-16T00:43:33.345Z,10.00
2019-03-16T00:46:02.573Z,5.53
2019-03-16T00:48:31.803Z,10.20
2019-03-16T00:51:01.173Z,11.60
2019-03-16T00:53:30.403Z,10.07
2019-03-16T00:55:59.672Z,13.17
2019-03-16T00:58:28.958Z,10.00
2019-03-16T01:00:58.297Z,11.40
2019-03-16T01:03:27.610Z,10.07
2019-03-16T01:05:56.878Z,7.10
2019-03-16T01:08:45.478Z,12.27
2019-03-16T01:11:14.735Z,14.47
2019-03-16T01:13:43.975Z,14.93
2019-03-16T01:16:13.318Z,10.03
2019-03-16T01:18:42.624Z,14.53
2019-03-16T01:21:11.943Z,16.83
2019-03-16T01:24:00.555Z,14.33
2019-03-16T01:26:29.833Z,8.97
2019-03-16T01:28:59.072Z,8.90
2019-03-16T01:31:28.307Z,8.10
2019-03-16T01:33:57.657Z,17.53
2019-03-16T01:36:26.955Z,9.97
2019-03-16T01:38:56.382Z,9.60
2019-03-16T01:41:25.916Z,8.00
2019-03-16T01:43:55.583Z,13.10
2019-03-16T01:46:24.847Z,16.23
2019-03-16T01:48:54.077Z,8.70
2019-03-16T01:51:23.517Z,12.07
2019-03-16T01:53:52.806Z,9.30
2019-03-16T01:56:22.040Z,12.90
2019-03-16T01:58:51.300Z,9.13
2019-03-16T02:01:20.523Z,8.40
2019-03-16T02:03:49.791Z,14.33
2019-03-16T02:06:19.389Z,10.67
2019-03-16T02:08:48.662Z,10.77
2019-03-16T02:11:18.054Z,11.40
2019-03-16T02:13:59.820Z,17.73
2019-03-16T02:16:29.061Z,12.03
2019-03-16T02:18:58.284Z,9.23
2019-03-16T02:21:27.577Z,15.73
2019-03-16T02:23:57.068Z,13.83
2019-03-16T02:26:26.326Z,10.37
2019-03-16T02:28:55.562Z,13.40
2019-03-16T02:31:24.792Z,11.10
2019-03-16T02:33:54.031Z,15.93
2019-03-16T02:36:23.270Z,13.03
2019-03-16T02:38:52.506Z,7.93
2019-03-16T02:41:21.737Z,10.00
2019-03-16T02:43:50.967Z,12.17
2019-03-16T02:46:20.263Z,14.13
2019-03-16T02:49:08.865Z,11.50
2019-03-16T02:51:38.092Z,13.87
2019-03-16T02:54:07.345Z,8.77
2019-03-16T02:56:36.588Z,11.03
2019-03-16T02:59:05.979Z,14.73
2019-03-16T03:01:35.414Z,12.50
2019-03-16T03:04:04.902Z,12.40
2019-03-16T03:06:34.147Z,11.20
2019-03-16T03:09:05.492Z,7.70
2019-03-16T03:11:34.750Z,12.17
2019-03-16T03:14:04.206Z,16.03
2019-03-16T03:16:33.449Z,11.10
2019-03-16T03:19:02.687Z,12.30
2019-03-16T03:21:31.962Z,10.83
2019-03-16T03:24:01.184Z,10.60
2019-03-16T03:26:30.493Z,19.73
2019-03-16T03:28:59.754Z,10.47
2019-03-16T03:31:28.999Z,11.53
2019-03-16T03:34:01.690Z,12.47
2019-03-16T03:36:29.249Z,12.00
2019-03-16T03:38:58.468Z,8.83
2019-03-16T03:41:27.760Z,24.43
2019-03-16T03:43:57.047Z,12.00
2019-03-16T03:46:26.271Z,10.63
2019-03-16T03:48:55.526Z,13.13
2019-03-16T03:51:24.756Z,12.97
2019-03-16T03:53:54.016Z,11.87
2019-03-16T03:56:23.307Z,10.07
2019-03-16T03:58:52.571Z,15.13
2019-03-16T04:01:21.921Z,9.07
2019-03-16T04:03:51.415Z,14.60
2019-03-16T04:06:20.723Z,11.10
2019-03-16T04:08:54.532Z,11.33
2019-03-16T04:11:24.015Z,12.30
2019-03-16T04:13:53.247Z,8.23
2019-03-16T04:16:22.553Z,14.37
2019-03-16T04:18:52.165Z,10.20
2019-03-16T04:21:21.739Z,9.90
2019-03-16T04:23:51.065Z,10.07
2019-03-16T04:26:20.328Z,8.00
2019-03-16T04:28:49.618Z,6.70
2019-03-16T04:31:18.871Z,8.77
2019-03-16T04:33:48.094Z,9.60
2019-03-16T04:36:17.323Z,9.33
2019-03-16T04:38:46.556Z,15.50
2019-03-16T04:41:35.152Z,11.13
2019-03-16T04:44:04.553Z,10.43
2019-03-16T04:46:33.879Z,8.50
2019-03-16T04:49:03.106Z,15.20
2019-03-16T04:51:32.355Z,14.50
2019-03-16T04:54:01.600Z,9.53
2019-03-16T04:56:30.827Z,15.13
2019-03-16T04:59:00.071Z,16.97
2019-03-16T05:01:29.322Z,12.13
2019-03-16T05:03:58.562Z,10.40
2019-03-16T05:06:27.863Z,8.07
2019-03-16T05:08:57.138Z,18.20
2019-03-16T05:11:26.363Z,11.10
2019-03-16T05:13:55.614Z,11.37
2019-03-16T05:16:24.874Z,12.30
2019-03-16T05:18:54.096Z,13.83
2019-03-16T05:21:23.384Z,24.50
2019-03-16T05:23:52.704Z,17.43
2019-03-16T05:26:21.986Z,27.03
2019-03-16T05:28:51.315Z,22.33
2019-03-16T05:31:20.552Z,19.97
2019-03-16T05:33:49.843Z,23.53
2019-03-16T05:36:19.091Z,13.77
2019-03-16T05:38:48.314Z,22.20
2019-03-16T05:41:17.556Z,26.70
2019-03-16T05:43:46.813Z,27.97
2019-03-16T05:46:16.055Z,29.13
2019-03-16T05:48:45.299Z,33.43
2019-03-16T05:51:14.527Z,17.10
2019-03-16T05:53:43.786Z,20.20
2019-03-16T05:56:13.018Z,12.27
2019-03-16T05:58:42.261Z,15.73
2019-03-16T06:01:11.515Z,18.43
2019-03-16T06:03:40.743Z,30.37
2019-03-16T06:06:10.066Z,30.70
2019-03-16T06:08:39.298Z,34.00
2019-03-16T06:11:08.578Z,24.67
2019-03-16T06:13:37.828Z,20.10
2019-03-16T06:16:07.071Z,41.20
2019-03-16T06:18:36.317Z,28.20
2019-03-16T06:21:05.749Z,42.57
2019-03-16T06:23:35.035Z,22.20
2019-03-16T06:26:04.430Z,24.83
2019-03-16T06:28:53.076Z,22.57
2019-03-16T06:31:22.315Z,19.10
2019-03-16T06:33:51.575Z,22.20
2019-03-16T06:36:20.818Z,20.80
2019-03-16T06:38:50.128Z,23.70
2019-03-16T06:41:19.378Z,15.40
2019-03-16T06:43:48.663Z,22.83
2019-03-16T06:46:17.986Z,25.67
2019-03-16T06:48:47.238Z,18.23
2019-03-16T06:51:16.461Z,26.83
2019-03-16T06:53:45.738Z,17.83
2019-03-16T06:56:15.039Z,11.10
2019-03-16T06:58:44.472Z,22.60
2019-03-16T07:01:13.758Z,16.20
2019-03-16T07:03:43.003Z,13.80
2019-03-16T07:06:12.235Z,14.63
2019-03-16T07:08:41.492Z,24.13
2019-03-16T07:11:10.753Z,16.20
2019-03-16T07:13:40.030Z,23.03
2019-03-16T07:16:09.301Z,18.83
2019-03-16T07:18:38.536Z,23.23
2019-03-16T07:21:07.784Z,18.60
2019-03-16T07:23:37.180Z,19.43
2019-03-16T07:26:14.655Z,13.83
2019-03-16T07:28:38.048Z,16.53
2019-03-16T07:31:07.278Z,18.30
2019-03-16T07:33:36.539Z,19.30
2019-03-16T07:36:05.807Z,23.73
2019-03-16T07:38:35.043Z,12.63
2019-03-16T07:41:04.306Z,15.30
2019-03-16T07:43:33.547Z,12.47
2019-03-16T07:46:02.779Z,14.20
2019-03-16T07:48:32.040Z,12.73
2019-03-16T07:51:01.254Z,16.67
2019-03-16T07:53:30.521Z,14.53
2019-03-16T07:55:59.790Z,18.67
2019-03-16T07:58:29.026Z,13.63
2019-03-16T08:00:58.249Z,10.83
2019-03-16T08:03:34.512Z,14.47
2019-03-16T08:06:04.884Z,17.10
2019-03-16T08:08:34.138Z,17.50
2019-03-16T08:11:03.402Z,8.67
2019-03-16T08:13:32.744Z,7.23
2019-03-16T08:16:02.008Z,6.20
2019-03-16T08:18:31.259Z,9.10
2019-03-16T08:21:00.526Z,6.87
2019-03-16T08:23:29.754Z,6.23
2019-03-16T08:25:59.016Z,5.67
2019-03-16T08:28:28.238Z,6.47
2019-03-16T08:30:57.452Z,4.53
2019-03-16T08:33:26.707Z,7.43
2019-03-16T08:35:55.964Z,3.97
2019-03-16T08:38:25.207Z,5.07
2019-03-16T08:40:54.437Z,6.20
2019-03-16T08:43:23.683Z,7.47
2019-03-16T08:45:52.925Z,3.90
2019-03-16T08:48:23.427Z,3.90
2019-03-16T08:50:52.786Z,3.73
2019-03-16T08:53:23.105Z,3.60
2019-03-16T08:55:52.653Z,3.40
2019-03-16T08:58:22.061Z,3.40
2019-03-16T09:00:51.293Z,2.57
2019-03-16T09:03:20.537Z,4.67
2019-03-16T09:05:49.788Z,2.50
2019-03-16T09:08:19.011Z,3.60
2019-03-16T09:10:48.250Z,2.87
2019-03-16T09:13:17.507Z,2.83
2019-03-16T09:15:46.772Z,1.67
2019-03-16T09:18:16.046Z,2.03
2019-03-16T09:20:45.322Z,2.17
2019-03-16T09:23:14.630Z,3.37
2019-03-16T09:25:43.876Z,1.97
2019-03-16T09:28:18.496Z,2.57
2019-03-16T09:30:44.134Z,2.90
2019-03-16T09:33:13.506Z,1.90
2019-03-16T09:35:42.895Z,2.00
2019-03-16T09:38:12.250Z,2.30
2019-03-16T09:40:41.469Z,1.83
2019-03-16T09:43:10.731Z,4.17
2019-03-16T09:45:40.024Z,3.83
2019-03-16T09:48:10.416Z,2.60
2019-03-16T09:50:39.652Z,2.60
2019-03-16T09:53:08.949Z,1.63
2019-03-16T09:55:38.202Z,2.20
2019-03-16T09:58:07.507Z,5.63
2019-03-16T10:00:36.754Z,2.20
2019-03-16T10:03:06.076Z,8.43
2019-03-16T10:05:35.327Z,3.40
2019-03-16T10:08:04.598Z,2.60
2019-03-16T10:10:33.833Z,2.17
2019-03-16T10:13:03.118Z,1.30
2019-03-16T10:15:32.398Z,6.30
2019-03-16T10:18:01.648Z,1.93
2019-03-16T10:20:31.011Z,1.83
2019-03-16T10:23:00.274Z,2.63
2019-03-16T10:25:29.552Z,2.07
2019-03-16T10:27:58.784Z,2.37
2019-03-16T10:30:28.145Z,2.43
2019-03-16T10:32:57.430Z,3.13
2019-03-16T10:35:26.685Z,5.70
2019-03-16T10:37:55.936Z,2.90
2019-03-16T10:40:26.471Z,4.63
2019-03-16T10:42:55.726Z,2.97
2019-03-16T10:45:25.042Z,4.27
2019-03-16T10:47:54.263Z,4.10
2019-03-16T10:50:23.556Z,5.73
2019-03-16T10:52:52.811Z,3.10
2019-03-16T10:55:22.067Z,2.93
2019-03-16T10:57:51.310Z,3.20
2019-03-16T11:00:20.556Z,3.23
2019-03-16T11:02:50.988Z,2.50
2019-03-16T11:05:20.242Z,2.50
2019-03-16T11:07:49.603Z,3.33
2019-03-16T11:10:18.836Z,2.70
2019-03-16T11:12:49.059Z,3.47
2019-03-16T11:15:18.315Z,2.70
2019-03-16T11:17:47.540Z,3.03
2019-03-16T11:20:20.192Z,2.10
2019-03-16T11:22:49.462Z,1.67
2019-03-16T11:25:18.701Z,2.00
2019-03-16T11:27:48.037Z,3.03
2019-03-16T11:30:21.460Z,3.37
2019-03-16T11:32:50.779Z,2.43
2019-03-16T11:35:20.068Z,1.93
2019-03-16T11:37:49.437Z,1.43
2019-03-16T11:40:19.210Z,1.67
2019-03-16T11:42:48.460Z,1.43
2019-03-16T11:45:17.767Z,2.13
2019-03-16T11:47:47.216Z,4.00
2019-03-16T11:50:16.595Z,1.60
2019-03-16T11:52:45.836Z,2.07
2019-03-16T11:55:15.158Z,1.63
2019-03-16T11:57:44.425Z,2.13
2019-03-16T12:00:14.896Z,1.43
2019-03-16T12:02:44.149Z,2.43
2019-03-16T12:05:13.558Z,3.93
2019-03-16T12:07:42.828Z,2.00
2019-03-16T12:10:13.354Z,1.80
2019-03-16T12:12:42.605Z,2.20
2019-03-16T12:15:12.959Z,3.87
2019-03-16T12:17:42.298Z,1.70
2019-03-16T12:20:13.876Z,2.70
2019-03-16T12:22:43.183Z,2.90
2019-03-16T12:25:12.807Z,2.30
2019-03-16T12:27:42.130Z,2.00
2019-03-16T12:30:13.898Z,1.80
2019-03-16T12:32:43.385Z,2.50
2019-03-16T12:35:13.424Z,2.13
2019-03-16T12:37:42.684Z,3.97
2019-03-16T12:40:15.199Z,2.33
2019-03-16T12:42:44.462Z,3.60
2019-03-16T12:45:21.124Z,3.07
2019-03-16T12:47:50.496Z,2.63
2019-03-16T12:50:19.828Z,3.00
2019-03-16T12:52:49.674Z,1.57
2019-03-16T12:55:19.008Z,3.03
2019-03-16T12:57:48.560Z,3.00
2019-03-16T13:00:19.158Z,4.40
2019-03-16T13:02:48.454Z,2.00
2019-03-16T13:05:17.806Z,1.60
2019-03-16T13:07:47.130Z,2.10
2019-03-16T13:10:19.933Z,2.23
2019-03-16T13:12:49.326Z,3.17
2019-03-16T13:15:18.603Z,3.93
2019-03-16T13:17:47.927Z,4.90
2019-03-16T13:20:17.793Z,2.70
2019-03-16T13:22:50.310Z,3.67
2019-03-16T13:25:19.727Z,2.37
2019-03-16T13:27:49.027Z,2.30
2019-03-16T13:30:20.299Z,2.90
2019-03-16T13:32:49.812Z,2.20
2019-03-16T13:35:19.158Z,3.23
2019-03-16T13:37:48.514Z,2.53
2019-03-16T13:40:18.663Z,5.27
2019-03-16T13:42:55.326Z,4.90
2019-03-16T13:45:24.646Z,2.00
2019-03-16T13:47:53.889Z,3.63
2019-03-16T13:50:23.332Z,1.60
2019-03-16T13:52:52.913Z,2.20
2019-03-16T13:55:22.229Z,3.93
2019-03-16T13:57:51.495Z,4.40
2019-03-16T14:00:21.603Z,7.33
2019-03-16T14:02:50.860Z,2.27
2019-03-16T14:05:20.158Z,1.80
2019-03-16T14:07:49.447Z,1.77
2019-03-16T14:10:28.798Z,2.00
2019-03-16T14:12:58.156Z,4.37
2019-03-16T14:15:27.486Z,2.00
2019-03-16T14:17:58.690Z,1.70
2019-03-16T14:20:28.070Z,2.13
2019-03-16T14:22:57.492Z,1.93
2019-03-16T14:25:27.301Z,1.97
2019-03-16T14:27:56.539Z,1.73
2019-03-16T14:30:40.594Z,4.80
2019-03-16T14:33:00.208Z,2.27
2019-03-16T14:35:29.551Z,3.87
2019-03-16T14:37:58.848Z,1.60
2019-03-16T14:40:28.102Z,2.27
2019-03-16T14:42:57.650Z,1.70
2019-03-16T14:45:27.229Z,3.67
2019-03-16T14:47:56.499Z,1.93
2019-03-16T14:50:30.243Z,3.80
2019-03-16T14:52:59.498Z,2.20
2019-03-16T14:55:28.770Z,1.60
2019-03-16T14:57:58.013Z,4.90
2019-03-16T15:00:37.741Z,3.93
2019-03-16T15:02:58.293Z,2.77
2019-03-16T15:05:29.005Z,4.23
2019-03-16T15:07:58.245Z,4.10
2019-03-16T15:10:27.522Z,2.50
2019-03-16T15:12:56.780Z,1.43
2019-03-16T15:15:26.131Z,3.60
2019-03-16T15:17:55.542Z,1.93
2019-03-16T15:20:24.827Z,3.07
2019-03-16T15:22:54.144Z,2.60
2019-03-16T15:25:23.469Z,1.93
2019-03-16T15:27:52.871Z,5.90
2019-03-16T15:30:22.578Z,2.50
2019-03-16T15:32:51.928Z,2.20
2019-03-16T15:35:21.179Z,1.53
2019-03-16T15:37:50.519Z,4.07
2019-03-16T15:40:19.841Z,1.70
2019-03-16T15:42:49.228Z,1.90
2019-03-16T15:45:27.038Z,4.33
2019-03-16T15:47:56.292Z,3.57
2019-03-16T15:50:25.634Z,3.60
2019-03-16T15:52:54.973Z,2.03
2019-03-16T15:55:24.455Z,4.27
2019-03-16T15:58:06.960Z,4.27
2019-03-16T16:00:24.893Z,3.77
2019-03-16T16:02:54.308Z,4.07
2019-03-16T16:05:23.533Z,3.73
2019-03-16T16:07:52.886Z,1.90
2019-03-16T16:10:22.349Z,2.17
2019-03-16T16:12:51.628Z,2.53
2019-03-16T16:15:21.202Z,3.40
2019-03-16T16:17:51.188Z,1.93
2019-03-16T16:20:20.459Z,3.43
2019-03-16T16:22:49.847Z,4.10
2019-03-16T16:25:19.211Z,3.30
2019-03-16T16:27:48.460Z,3.20
2019-03-16T16:30:19.170Z,1.80
2019-03-16T16:32:48.442Z,3.00
2019-03-16T16:35:17.846Z,4.60
2019-03-16T16:37:47.200Z,2.47
2019-03-16T16:40:19.590Z,6.60
2019-03-16T16:42:51.383Z,4.20
2019-03-16T16:45:20.716Z,1.90
2019-03-16T16:47:49.978Z,4.03
2019-03-16T16:50:29.604Z,2.00
2019-03-16T16:52:58.825Z,2.00
2019-03-16T16:55:28.193Z,3.57
2019-03-16T16:57:57.583Z,3.50
2019-03-16T17:00:27.931Z,3.17
2019-03-16T17:02:57.226Z,2.00
2019-03-16T17:05:26.603Z,2.80
2019-03-16T17:07:55.878Z,3.77
2019-03-16T17:10:25.127Z,3.37
2019-03-16T17:12:54.628Z,2.57
2019-03-16T17:15:24.560Z,5.47
2019-03-16T17:17:55.418Z,4.10
2019-03-16T17:20:24.809Z,2.73
2019-03-16T17:23:00.144Z,5.47
2019-03-16T17:25:29.387Z,2.97
2019-03-16T17:27:58.642Z,5.53
2019-03-16T17:30:29.799Z,3.70
2019-03-16T17:32:59.291Z,3.47
2019-03-16T17:35:28.634Z,6.10
2019-03-16T17:37:58.014Z,2.80
2019-03-16T17:40:27.270Z,2.60
2019-03-16T17:42:56.561Z,2.67
2019-03-16T17:45:25.850Z,2.67
2019-03-16T17:47:58.304Z,2.20
2019-03-16T17:50:27.576Z,2.57
2019-03-16T17:52:56.961Z,4.73
2019-03-16T17:55:26.218Z,2.93
2019-03-16T17:57:55.493Z,3.60
2019-03-16T18:00:24.878Z,2.53
2019-03-16T18:02:55.756Z,2.73
2019-03-16T18:05:25.100Z,3.07
2019-03-16T18:08:13.720Z,2.83
2019-03-16T18:10:42.973Z,3.50
2019-03-16T18:13:12.235Z,2.40
2019-03-16T18:15:41.479Z,3.30
2019-03-16T18:18:12.282Z,2.37
2019-03-16T18:20:41.753Z,2.57
2019-03-16T18:23:30.423Z,4.50
2019-03-16T18:26:00.108Z,2.83
2019-03-16T18:28:29.561Z,3.53
2019-03-16T18:30:59.072Z,3.07
2019-03-16T18:33:29.987Z,2.30
2019-03-16T18:35:59.272Z,6.10
2019-03-16T18:38:28.671Z,2.70
2019-03-16T18:40:58.079Z,2.93
2019-03-16T18:43:29.872Z,2.80
2019-03-16T18:45:59.183Z,2.80
2019-03-16T18:48:30.473Z,5.87
2019-03-16T18:50:59.515Z,5.37
2019-03-16T18:53:31.780Z,2.77
2019-03-16T18:56:01.304Z,3.23
2019-03-16T18:58:37.053Z,3.53
2019-03-16T19:01:01.894Z,3.87
2019-03-16T19:03:35.168Z,4.90
2019-03-16T19:06:04.552Z,3.50
2019-03-16T19:08:33.981Z,5.33
2019-03-16T19:11:03.438Z,4.60
2019-03-16T19:13:34.554Z,3.70
2019-03-16T19:16:04.129Z,3.00
2019-03-16T19:18:41.111Z,5.33
2019-03-16T19:21:10.426Z,5.33
2019-03-16T19:23:39.797Z,3.37
2019-03-16T19:26:09.113Z,7.40
2019-03-16T19:28:38.369Z,4.03
2019-03-16T19:31:07.746Z,3.70
2019-03-16T19:33:37.096Z,5.43
2019-03-16T19:36:06.504Z,3.90
2019-03-16T19:38:35.769Z,5.73
2019-03-16T19:41:05.092Z,5.07
2019-03-16T19:43:34.396Z,4.90
2019-03-16T19:46:03.791Z,10.40
2019-03-16T19:48:33.030Z,4.70
2019-03-16T19:51:04.357Z,5.03
2019-03-16T19:53:33.281Z,4.10
2019-03-16T19:56:02.579Z,7.63
2019-03-16T19:58:31.925Z,5.20
2019-03-16T20:01:01.231Z,4.47
2019-03-16T20:03:30.500Z,10.53
2019-03-16T20:05:59.748Z,6.53
2019-03-16T20:08:29.075Z,3.90
2019-03-16T20:11:06.378Z,7.00
2019-03-16T20:13:29.474Z,7.40
2019-03-16T20:15:58.757Z,4.63
2019-03-16T20:18:28.166Z,5.93
2019-03-16T20:20:57.562Z,5.20
2019-03-16T20:23:26.904Z,4.70
2019-03-16T20:26:03.723Z,4.77
2019-03-16T20:28:32.984Z,7.40
2019-03-16T20:31:02.255Z,4.73
2019-03-16T20:33:31.518Z,4.30
2019-03-16T20:36:00.774Z,5.30
2019-03-16T20:38:30.021Z,5.90
2019-03-16T20:40:59.313Z,7.60
2019-03-16T20:43:28.561Z,6.13
2019-03-16T20:45:57.816Z,3.70
2019-03-16T20:48:27.073Z,4.90
2019-03-16T20:50:57.317Z,4.43
2019-03-16T20:53:26.615Z,4.47
2019-03-16T20:55:55.918Z,7.77
2019-03-16T20:58:25.252Z,6.63
2019-03-16T21:00:54.543Z,4.40
2019-03-16T21:03:23.827Z,3.70
2019-03-16T21:05:53.338Z,4.50
2019-03-16T21:08:22.608Z,4.93
2019-03-16T21:11:11.237Z,5.83
2019-03-16T21:13:40.483Z,4.43
2019-03-16T21:16:09.792Z,5.93
2019-03-16T21:18:39.054Z,4.20
2019-03-16T21:21:08.369Z,5.00
2019-03-16T21:23:37.588Z,4.33
2019-03-16T21:26:06.868Z,4.03
2019-03-16T21:28:55.463Z,6.13
2019-03-16T21:31:24.708Z,7.20
2019-03-16T21:34:13.310Z,7.50
2019-03-16T21:36:42.667Z,3.57
2019-03-16T21:39:11.963Z,4.90
2019-03-16T21:41:44.107Z,3.63
2019-03-16T21:44:12.216Z,7.60
2019-03-16T21:46:43.799Z,6.50
2019-03-16T21:49:12.425Z,5.10
2019-03-16T21:52:02.908Z,5.73
2019-03-16T21:54:32.074Z,3.83
2019-03-16T21:57:01.453Z,3.57
2019-03-16T21:59:30.822Z,4.17
2019-03-16T22:02:00.068Z,9.00
2019-03-16T22:04:29.323Z,9.77
2019-03-16T22:06:58.591Z,7.50
2019-03-16T22:09:27.902Z,4.30
2019-03-16T22:11:57.193Z,7.90
2019-03-16T22:14:26.452Z,3.63
2019-03-16T22:16:55.750Z,3.50
2019-03-16T22:19:25.015Z,4.53
2019-03-16T22:21:54.312Z,4.77
2019-03-16T22:24:23.941Z,4.37
2019-03-16T22:26:53.241Z,3.30
2019-03-16T22:29:22.511Z,4.33
2019-03-16T22:31:51.755Z,4.63
2019-03-16T22:34:20.992Z,3.87
2019-03-16T22:36:50.268Z,3.13
2019-03-16T22:39:19.525Z,3.20
2019-03-16T22:41:48.769Z,4.70
2019-03-16T22:44:18.382Z,3.70
2019-03-16T22:46:47.655Z,7.00
2019-03-16T22:49:16.936Z,5.40
2019-03-16T22:51:46.324Z,3.60
2019-03-16T22:54:15.555Z,4.73
2019-03-16T22:56:44.814Z,3.77
2019-03-16T22:59:14.308Z,4.27
2019-03-16T23:01:43.632Z,3.30
2019-03-16T23:04:12.937Z,3.40
2019-03-16T23:06:42.178Z,5.43
2019-03-16T23:09:11.422Z,3.13
2019-03-16T23:11:40.664Z,4.33
2019-03-16T23:14:09.935Z,3.20
2019-03-16T23:16:39.170Z,4.23
2019-03-16T23:19:08.414Z,3.27
2019-03-16T23:21:37.674Z,3.43
2019-03-16T23:24:06.947Z,7.07
2019-03-16T23:26:38.792Z,4.93
2019-03-16T23:29:07.309Z,3.00
2019-03-16T23:31:36.586Z,3.23
2019-03-16T23:34:18.314Z,4.20
2019-03-16T23:36:37.007Z,2.77
2019-03-16T23:39:06.504Z,2.73
2019-03-16T23:41:35.794Z,3.30
2019-03-16T23:44:05.066Z,4.00
2019-03-16T23:46:34.354Z,3.60
2019-03-16T23:49:03.611Z,2.50
2019-03-16T23:51:32.844Z,2.70
2019-03-16T23:54:02.098Z,4.63
2019-03-16T23:56:31.350Z,3.43
2019-03-16T23:59:00.654Z,6.40
